createdAt,value
2019-06-08T00:02:07.397Z,4.80
2019-06-08T00:04:39.242Z,3.83
2019-06-08T00:07:12.776Z,4.40
2019-06-08T00:09:44.608Z,4.17
2019-06-08T00:12:19.011Z,4.42
2019-06-08T00:14:50.995Z,4.25
2019-06-08T00:17:34.360Z,3.90
2019-06-08T00:19:57.078Z,3.65
2019-06-08T00:22:29.453Z,4.00
2019-06-08T00:25:01.674Z,3.80
2019-06-08T00:27:35.838Z,3.62
2019-06-08T00:30:07.601Z,3.02
2019-06-08T00:32:39.695Z,3.40
2019-06-08T00:35:11.537Z,3.08
2019-06-08T00:37:43.823Z,3.55
2019-06-08T00:40:16.852Z,3.47
2019-06-08T00:42:48.775Z,2.90
2019-06-08T00:45:21.678Z,3.45
2019-06-08T00:47:53.838Z,3.80
2019-06-08T00:50:26.211Z,3.12
2019-06-08T00:52:58.185Z,3.72
2019-06-08T00:55:30.456Z,3.52
2019-06-08T00:58:02.834Z,4.10
2019-06-08T01:00:34.913Z,3.87
2019-06-08T01:03:07.071Z,3.52
2019-06-08T01:05:39.133Z,3.52
2019-06-08T01:08:11.565Z,4.08
2019-06-08T01:10:43.577Z,3.83
2019-06-08T01:13:15.854Z,3.47
2019-06-08T01:15:47.925Z,3.20
2019-06-08T01:18:21.142Z,2.98
2019-06-08T01:20:54.209Z,3.70
2019-06-08T01:23:27.807Z,4.03
2019-06-08T01:25:59.988Z,3.22
2019-06-08T01:28:33.386Z,2.98
2019-06-08T01:31:05.151Z,3.40
2019-06-08T01:33:37.215Z,3.58
2019-06-08T01:36:09.131Z,3.55
2019-06-08T01:38:41.260Z,3.70
2019-06-08T01:41:13.216Z,3.62
2019-06-08T01:43:46.205Z,3.70
2019-06-08T01:46:18.170Z,4.42
2019-06-08T01:48:50.557Z,4.78
2019-06-08T01:51:22.820Z,6.62
2019-06-08T01:53:55.094Z,6.70
2019-06-08T01:56:27.472Z,5.50
2019-06-08T01:59:00.881Z,5.47
2019-06-08T02:01:34.156Z,6.95
2019-06-08T02:04:06.338Z,9.05
2019-06-08T02:06:38.430Z,7.95
2019-06-08T02:09:10.679Z,8.58
2019-06-08T02:11:42.800Z,8.03
2019-06-08T02:14:15.082Z,7.22
2019-06-08T02:16:48.425Z,7.53
2019-06-08T02:19:20.289Z,8.23
2019-06-08T02:21:52.457Z,7.17
2019-06-08T02:24:24.782Z,7.55
2019-06-08T02:26:57.109Z,7.25
2019-06-08T02:29:33.722Z,6.67
2019-06-08T02:32:05.876Z,6.78
2019-06-08T02:34:40.498Z,7.28
2019-06-08T02:37:12.767Z,6.87
2019-06-08T02:39:45.138Z,5.67
2019-06-08T02:42:17.517Z,5.75
2019-06-08T02:44:49.484Z,5.65
2019-06-08T02:47:21.555Z,6.08
2019-06-08T02:49:53.519Z,6.20
2019-06-08T02:52:25.689Z,6.67
2019-06-08T02:54:57.687Z,6.08
2019-06-08T02:57:31.016Z,6.05
2019-06-08T03:00:03.252Z,5.60
2019-06-08T03:02:36.929Z,6.30
2019-06-08T03:05:09.629Z,6.15
2019-06-08T03:07:43.137Z,5.00
2019-06-08T03:10:14.997Z,4.65
2019-06-08T03:12:47.265Z,3.67
2019-06-08T03:15:22.919Z,4.17
2019-06-08T03:17:55.091Z,4.03
2019-06-08T03:20:27.159Z,4.37
2019-06-08T03:23:00.558Z,4.30
2019-06-08T03:25:42.076Z,4.65
2019-06-08T03:28:07.873Z,4.25
2019-06-08T03:30:51.925Z,4.50
2019-06-08T03:33:13.351Z,4.35
2019-06-08T03:35:55.375Z,4.40
2019-06-08T03:38:19.529Z,3.80
2019-06-08T03:40:51.604Z,4.33
2019-06-08T03:43:23.868Z,3.92
2019-06-08T03:45:56.348Z,4.40
2019-06-08T03:48:28.518Z,3.83
2019-06-08T03:51:00.686Z,4.47
2019-06-08T03:53:32.860Z,4.35
2019-06-08T03:56:05.137Z,4.45
2019-06-08T03:58:38.515Z,4.03
2019-06-08T04:01:11.229Z,5.37
2019-06-08T04:03:44.037Z,4.40
2019-06-08T04:06:16.490Z,3.85
2019-06-08T04:08:49.958Z,4.78
2019-06-08T04:11:22.064Z,4.00
2019-06-08T04:13:54.341Z,4.42
2019-06-08T04:16:27.629Z,4.03
2019-06-08T04:18:59.800Z,4.17
2019-06-08T04:21:31.972Z,3.75
2019-06-08T04:24:04.384Z,3.83
2019-06-08T04:26:38.449Z,3.40
2019-06-08T04:29:10.636Z,3.83
2019-06-08T04:31:43.791Z,4.37
2019-06-08T04:34:16.004Z,3.83
2019-06-08T04:36:50.200Z,4.42
2019-06-08T04:39:21.574Z,4.00
2019-06-08T04:41:53.645Z,3.58
2019-06-08T04:44:26.015Z,3.83
2019-06-08T04:46:58.390Z,4.45
2019-06-08T04:49:30.363Z,4.15
2019-06-08T04:52:02.743Z,3.77
2019-06-08T04:54:34.703Z,4.28
2019-06-08T04:57:06.979Z,3.90
2019-06-08T04:59:39.681Z,4.60
2019-06-08T05:02:12.654Z,4.53
2019-06-08T05:04:45.349Z,4.33
2019-06-08T05:07:20.885Z,4.12
2019-06-08T05:09:52.953Z,4.55
2019-06-08T05:12:25.446Z,3.95
2019-06-08T05:14:57.397Z,4.50
2019-06-08T05:17:29.779Z,3.98
2019-06-08T05:20:01.745Z,4.67
2019-06-08T05:22:33.704Z,4.25
2019-06-08T05:25:07.207Z,4.25
2019-06-08T05:27:41.271Z,4.62
2019-06-08T05:30:13.599Z,4.83
2019-06-08T05:32:45.976Z,4.85
2019-06-08T05:35:18.349Z,4.78
2019-06-08T05:37:50.323Z,4.83
2019-06-08T05:40:23.715Z,5.05
2019-06-08T05:42:55.892Z,5.10
2019-06-08T05:45:28.317Z,4.85
2019-06-08T05:48:00.535Z,4.90
2019-06-08T05:50:32.811Z,4.53
2019-06-08T05:53:04.876Z,4.40
2019-06-08T05:55:36.746Z,4.30
2019-06-08T05:58:08.821Z,4.35
2019-06-08T06:00:42.138Z,4.05
2019-06-08T06:03:14.079Z,4.15
2019-06-08T06:05:46.584Z,4.50
2019-06-08T06:08:19.528Z,3.92
2019-06-08T06:10:51.514Z,3.52
2019-06-08T06:13:24.196Z,3.20
2019-06-08T06:15:56.064Z,3.15
2019-06-08T06:18:28.234Z,2.75
2019-06-08T06:21:10.289Z,2.58
2019-06-08T06:23:33.901Z,2.98
2019-06-08T06:26:05.883Z,2.62
2019-06-08T06:28:37.738Z,2.52
2019-06-08T06:31:09.911Z,2.47
2019-06-08T06:33:42.092Z,2.67
2019-06-08T06:36:14.464Z,2.10
2019-06-08T06:38:47.908Z,2.27
2019-06-08T06:41:20.213Z,1.85
2019-06-08T06:43:52.359Z,2.42
2019-06-08T06:46:24.446Z,2.45
2019-06-08T06:48:56.612Z,2.33
2019-06-08T06:51:28.541Z,2.30
2019-06-08T06:54:01.667Z,2.87
2019-06-08T06:56:33.732Z,1.95
2019-06-08T06:59:06.001Z,2.25
2019-06-08T07:01:39.591Z,2.90
2019-06-08T07:04:13.572Z,3.10
2019-06-08T07:06:46.236Z,2.25
2019-06-08T07:09:18.504Z,2.08
2019-06-08T07:11:53.088Z,2.25
2019-06-08T07:14:26.683Z,2.70
2019-06-08T07:16:58.541Z,3.10
2019-06-08T07:19:30.605Z,2.55
2019-06-08T07:22:03.271Z,3.12
2019-06-08T07:24:35.663Z,2.75
2019-06-08T07:27:07.823Z,2.72
2019-06-08T07:29:42.759Z,3.27
2019-06-08T07:32:15.847Z,3.10
2019-06-08T07:34:49.956Z,3.35
2019-06-08T07:37:21.625Z,3.12
2019-06-08T07:39:53.754Z,2.70
2019-06-08T07:42:25.760Z,3.10
2019-06-08T07:45:00.229Z,3.10
2019-06-08T07:47:32.149Z,3.10
2019-06-08T07:50:05.077Z,2.85
2019-06-08T07:52:36.898Z,2.90
2019-06-08T07:55:09.392Z,2.90
2019-06-08T07:57:41.237Z,2.95
2019-06-08T08:00:13.718Z,3.58
2019-06-08T08:02:45.885Z,2.60
2019-06-08T08:05:17.648Z,5.33
2019-06-08T08:07:50.231Z,3.08
2019-06-08T08:10:22.202Z,2.87
2019-06-08T08:12:54.776Z,2.85
2019-06-08T08:15:26.740Z,2.20
2019-06-08T08:17:59.606Z,3.35
2019-06-08T08:20:31.692Z,2.50
2019-06-08T08:23:06.200Z,2.77
2019-06-08T08:25:37.956Z,3.08
2019-06-08T08:28:09.936Z,2.92
2019-06-08T08:30:42.222Z,2.30
2019-06-08T08:33:14.093Z,1.60
2019-06-08T08:35:48.208Z,2.10
2019-06-08T08:38:19.962Z,1.77
2019-06-08T08:40:53.435Z,2.12
2019-06-08T08:43:27.852Z,2.33
2019-06-08T08:46:01.849Z,2.12
2019-06-08T08:48:32.743Z,2.23
2019-06-08T08:51:05.122Z,1.80
2019-06-08T08:53:37.515Z,1.70
2019-06-08T08:56:09.358Z,1.90
2019-06-08T08:58:41.463Z,1.90
2019-06-08T09:01:13.284Z,1.95
2019-06-08T09:03:45.254Z,2.90
2019-06-08T09:06:18.129Z,2.22
2019-06-08T09:08:52.036Z,2.30
2019-06-08T09:11:24.834Z,2.10
2019-06-08T09:14:02.498Z,1.90
2019-06-08T09:16:31.016Z,2.10
2019-06-08T09:19:04.444Z,2.27
2019-06-08T09:21:38.396Z,2.00
2019-06-08T09:24:10.484Z,2.20
2019-06-08T09:26:42.352Z,2.52
2019-06-08T09:29:14.829Z,1.77
2019-06-08T09:31:48.876Z,2.37
2019-06-08T09:34:20.568Z,2.17
2019-06-08T09:36:54.062Z,2.30
2019-06-08T09:39:28.502Z,2.47
2019-06-08T09:42:02.974Z,2.20
2019-06-08T09:44:34.299Z,2.15
2019-06-08T09:47:12.149Z,2.00
2019-06-08T09:49:40.385Z,2.42
2019-06-08T09:52:12.666Z,2.60
2019-06-08T09:54:44.639Z,2.37
2019-06-08T09:57:18.852Z,2.17
2019-06-08T09:59:50.515Z,2.85
2019-06-08T10:02:22.573Z,2.47
2019-06-08T10:04:56.074Z,2.62
2019-06-08T10:07:31.363Z,2.67
2019-06-08T10:10:03.142Z,2.90
2019-06-08T10:12:37.729Z,3.23
2019-06-08T10:15:09.066Z,2.22
2019-06-08T10:17:40.825Z,2.67
2019-06-08T10:20:12.983Z,2.58
2019-06-08T10:22:44.955Z,3.62
2019-06-08T10:25:17.123Z,3.33
2019-06-08T10:27:49.205Z,3.30
2019-06-08T10:30:21.266Z,3.83
2019-06-08T10:32:53.673Z,3.10
2019-06-08T10:35:28.220Z,2.40
2019-06-08T10:38:02.799Z,3.40
2019-06-08T10:40:35.258Z,2.45
2019-06-08T10:43:09.894Z,2.87
2019-06-08T10:45:41.029Z,2.47
2019-06-08T10:48:13.205Z,2.95
2019-06-08T10:50:47.191Z,2.80
2019-06-08T10:53:18.873Z,2.80
2019-06-08T10:55:51.252Z,2.58
2019-06-08T10:58:23.717Z,3.35
2019-06-08T11:00:57.851Z,4.42
2019-06-08T11:03:30.684Z,4.90
2019-06-08T11:06:07.517Z,2.70
2019-06-08T11:08:39.097Z,2.20
2019-06-08T11:11:11.955Z,2.52
2019-06-08T11:13:50.092Z,2.05
2019-06-08T11:16:20.897Z,1.90
2019-06-08T11:18:53.256Z,2.40
2019-06-08T11:21:25.541Z,2.08
2019-06-08T11:24:10.388Z,1.80
2019-06-08T11:26:31.203Z,1.60
2019-06-08T11:29:04.941Z,1.87
2019-06-08T11:31:39.291Z,1.77
2019-06-08T11:34:11.098Z,1.40
2019-06-08T11:36:43.259Z,1.77
2019-06-08T11:39:15.431Z,1.27
2019-06-08T11:41:48.488Z,1.87
2019-06-08T11:44:20.485Z,1.60
2019-06-08T11:46:52.587Z,1.50
2019-06-08T11:49:24.403Z,1.32
2019-06-08T11:51:58.350Z,1.80
2019-06-08T11:57:04.907Z,1.70
2019-06-08T11:59:37.513Z,1.40
2019-06-08T12:02:12.682Z,1.60
2019-06-08T12:04:43.571Z,1.80
2019-06-08T12:07:15.457Z,1.70
2019-06-08T12:09:49.935Z,1.90
2019-06-08T12:12:21.473Z,1.82
2019-06-08T12:14:53.484Z,1.42
2019-06-08T12:17:27.635Z,1.72
2019-06-08T12:19:59.052Z,1.60
2019-06-08T12:22:31.119Z,1.80
2019-06-08T12:27:40.244Z,1.95
2019-06-08T12:30:21.683Z,1.87
2019-06-08T12:32:45.018Z,2.72
2019-06-08T12:35:18.130Z,1.77
2019-06-08T12:37:51.576Z,1.90
2019-06-08T12:40:23.576Z,1.80
2019-06-08T12:42:59.494Z,1.75
2019-06-08T12:45:29.357Z,1.37
2019-06-08T12:48:02.443Z,1.60
2019-06-08T12:50:34.518Z,2.12
2019-06-08T12:53:12.394Z,1.60
2019-06-08T12:58:12.608Z,1.90
2019-06-08T13:03:16.702Z,1.50
2019-06-08T13:05:48.663Z,1.62
2019-06-08T13:08:21.835Z,1.80
2019-06-08T13:10:54.025Z,1.77
2019-06-08T13:13:28.101Z,1.80
2019-06-08T13:15:59.906Z,1.60
2019-06-08T13:18:31.669Z,1.77
2019-06-08T13:21:16.664Z,1.92
2019-06-08T13:23:38.335Z,2.10
2019-06-08T13:28:43.932Z,2.00
2019-06-08T13:31:19.322Z,1.80
2019-06-08T13:36:25.850Z,1.40
2019-06-08T13:38:54.461Z,1.62
2019-06-08T13:41:29.655Z,1.62
2019-06-08T13:44:00.132Z,1.82
2019-06-08T13:46:32.004Z,2.02
2019-06-08T13:49:04.164Z,1.32
2019-06-08T13:51:38.227Z,1.30
2019-06-08T13:54:09.535Z,1.87
2019-06-08T13:56:41.291Z,1.57
2019-06-08T13:59:13.613Z,1.70
2019-06-08T14:01:47.777Z,1.95
2019-06-08T14:04:21.052Z,1.92
2019-06-08T14:06:53.687Z,1.80
2019-06-08T14:09:28.494Z,1.80
2019-06-08T14:11:59.936Z,1.75
2019-06-08T14:14:33.783Z,1.65
2019-06-08T14:19:38.534Z,1.75
2019-06-08T14:22:10.779Z,1.72
2019-06-08T14:24:42.823Z,1.67
2019-06-08T14:27:14.885Z,1.80
2019-06-08T14:29:51.370Z,1.98
2019-06-08T14:32:23.887Z,1.75
2019-06-08T14:34:58.182Z,1.90
2019-06-08T14:37:30.532Z,2.22
2019-06-08T14:40:02.493Z,2.00
2019-06-08T14:42:34.560Z,2.00
2019-06-08T14:45:10.733Z,2.40
2019-06-08T14:47:41.970Z,2.52
2019-06-08T14:50:14.547Z,2.00
2019-06-08T14:52:47.948Z,2.30
2019-06-08T14:55:22.229Z,2.25
2019-06-08T14:57:55.146Z,2.27
2019-06-08T15:00:27.821Z,2.52
2019-06-08T15:02:59.997Z,2.22
2019-06-08T15:05:32.678Z,2.47
2019-06-08T15:08:04.727Z,3.50
2019-06-08T15:10:38.532Z,5.37
2019-06-08T15:13:10.726Z,3.72
2019-06-08T15:15:42.586Z,3.02
2019-06-08T15:18:14.655Z,2.85
2019-06-08T15:20:48.113Z,2.85
2019-06-08T15:23:22.890Z,2.58
2019-06-08T15:25:53.619Z,4.50
2019-06-08T15:28:29.281Z,4.67
2019-06-08T15:31:00.064Z,4.28
2019-06-08T15:33:33.679Z,4.87
2019-06-08T15:36:05.671Z,4.22
2019-06-08T15:38:38.189Z,3.92
2019-06-08T15:41:10.318Z,4.22
2019-06-08T15:43:42.218Z,3.75
2019-06-08T15:46:14.353Z,2.65
2019-06-08T15:48:48.496Z,3.10
2019-06-08T15:51:19.914Z,3.27
2019-06-08T15:53:51.980Z,3.00
2019-06-08T15:56:40.490Z,3.02
2019-06-08T15:58:58.806Z,2.92
2019-06-08T16:01:31.866Z,3.20
2019-06-08T16:04:04.449Z,2.87
2019-06-08T16:06:36.423Z,3.52
2019-06-08T16:09:09.190Z,3.95
2019-06-08T16:11:41.361Z,3.35
2019-06-08T16:14:13.836Z,4.28
2019-06-08T16:16:45.497Z,3.87
2019-06-08T16:19:17.769Z,3.52
2019-06-08T16:21:50.345Z,3.25
2019-06-08T16:24:22.308Z,3.45
2019-06-08T16:26:54.574Z,2.70
2019-06-08T16:29:26.898Z,3.70
2019-06-08T16:31:58.910Z,4.47
2019-06-08T16:34:31.412Z,4.50
2019-06-08T16:37:03.475Z,4.28
2019-06-08T16:39:35.728Z,3.83
2019-06-08T16:42:07.803Z,3.87
2019-06-08T16:44:39.861Z,3.80
2019-06-08T16:47:11.943Z,3.58
2019-06-08T16:49:43.896Z,3.45
2019-06-08T16:52:17.393Z,3.77
2019-06-08T16:54:49.363Z,4.10
2019-06-08T16:57:21.326Z,3.60
2019-06-08T16:59:53.497Z,4.35
2019-06-08T17:02:25.567Z,3.50
2019-06-08T17:04:57.937Z,2.30
2019-06-08T17:07:29.900Z,3.15
2019-06-08T17:10:02.281Z,3.67
2019-06-08T17:12:37.008Z,3.77
2019-06-08T17:17:40.536Z,3.52
2019-06-08T17:20:12.593Z,3.22
2019-06-08T17:22:44.557Z,2.62
2019-06-08T17:25:16.629Z,3.08
2019-06-08T17:27:48.694Z,3.17
2019-06-08T17:30:20.665Z,3.30
2019-06-08T17:32:53.248Z,2.67
2019-06-08T17:35:25.204Z,2.45
2019-06-08T17:37:57.067Z,2.00
2019-06-08T17:40:28.833Z,2.02
2019-06-08T17:43:01.099Z,2.50
2019-06-08T17:45:34.214Z,2.50
2019-06-08T17:48:06.262Z,2.30
2019-06-08T17:50:38.689Z,8.10
2019-06-08T17:53:10.613Z,3.80
2019-06-08T17:55:43.668Z,3.35
2019-06-08T17:58:15.870Z,3.67
2019-06-08T18:00:47.941Z,3.50
2019-06-08T18:03:20.111Z,4.10
2019-06-08T18:05:52.179Z,3.55
2019-06-08T18:08:25.971Z,3.87
2019-06-08T18:10:58.157Z,2.20
2019-06-08T18:13:29.919Z,3.37
2019-06-08T18:16:01.994Z,3.25
2019-06-08T18:18:34.209Z,3.17
2019-06-08T18:21:08.138Z,3.58
2019-06-08T18:23:41.842Z,3.52
2019-06-08T18:26:13.646Z,3.58
2019-06-08T18:28:48.342Z,2.87
2019-06-08T18:31:19.419Z,2.72
2019-06-08T18:33:52.207Z,2.80
2019-06-08T18:36:27.525Z,2.55
2019-06-08T18:38:59.109Z,2.47
2019-06-08T18:41:31.175Z,2.30
2019-06-08T18:44:02.942Z,2.40
2019-06-08T18:46:38.024Z,2.45
2019-06-08T18:49:10.970Z,3.45
2019-06-08T18:51:43.912Z,3.20
2019-06-08T18:54:18.592Z,3.50
2019-06-08T18:56:49.730Z,3.37
2019-06-08T18:59:21.902Z,3.00
2019-06-08T19:01:53.770Z,3.02
2019-06-08T19:04:27.676Z,3.25
2019-06-08T19:07:01.377Z,4.90
2019-06-08T19:09:34.281Z,5.03
2019-06-08T19:12:06.420Z,3.42
2019-06-08T19:14:39.279Z,3.25
2019-06-08T19:17:12.426Z,3.33
2019-06-08T19:19:47.533Z,3.35
2019-06-08T19:22:18.999Z,3.25
2019-06-08T19:24:50.948Z,3.30
2019-06-08T19:27:23.874Z,2.62
2019-06-08T19:29:57.775Z,2.42
2019-06-08T19:32:29.265Z,2.62
2019-06-08T19:35:01.038Z,2.17
2019-06-08T19:37:32.938Z,2.72
2019-06-08T19:40:07.428Z,2.33
2019-06-08T19:42:50.460Z,2.22
2019-06-08T19:45:12.678Z,2.27
2019-06-08T19:47:45.045Z,2.83
2019-06-08T19:50:17.238Z,2.80
2019-06-08T19:52:52.214Z,2.65
2019-06-08T19:55:23.087Z,2.37
2019-06-08T19:57:57.006Z,2.52
2019-06-08T20:00:29.067Z,2.50
2019-06-08T20:03:01.343Z,2.92
2019-06-08T20:05:33.407Z,2.72
2019-06-08T20:08:07.965Z,2.62
2019-06-08T20:10:41.037Z,3.15
2019-06-08T20:13:13.045Z,2.70
2019-06-08T20:15:50.439Z,2.60
2019-06-08T20:18:18.677Z,4.00
2019-06-08T20:20:53.118Z,2.75
2019-06-08T20:23:24.449Z,3.10
2019-06-08T20:25:57.357Z,3.65
2019-06-08T20:28:30.034Z,3.87
2019-06-08T20:31:02.298Z,3.25
2019-06-08T20:33:37.682Z,3.58
2019-06-08T20:36:08.892Z,3.08
2019-06-08T20:38:43.764Z,3.35
2019-06-08T20:43:50.333Z,3.70
2019-06-08T20:46:20.536Z,3.70
2019-06-08T20:48:53.267Z,3.83
2019-06-08T20:51:27.713Z,3.33
2019-06-08T20:53:58.925Z,3.72
2019-06-08T20:56:30.835Z,3.40
2019-06-08T20:59:02.900Z,3.50
2019-06-08T21:01:34.978Z,3.30
2019-06-08T21:04:07.697Z,3.98
2019-06-08T21:06:41.059Z,4.12
2019-06-08T21:09:12.809Z,3.50
2019-06-08T21:11:49.359Z,5.03
2019-06-08T21:14:19.798Z,4.10
2019-06-08T21:16:53.310Z,3.45
2019-06-08T21:19:28.100Z,3.80
2019-06-08T21:22:00.088Z,3.10
2019-06-08T21:24:32.252Z,3.22
2019-06-08T21:27:04.430Z,3.90
2019-06-08T21:29:47.647Z,3.87
2019-06-08T21:32:10.370Z,4.67
2019-06-08T21:34:42.687Z,5.05
2019-06-08T21:37:14.959Z,5.87
2019-06-08T21:39:53.018Z,4.97
2019-06-08T21:42:23.291Z,6.33
2019-06-08T21:44:59.389Z,6.20
2019-06-08T21:47:29.751Z,3.77
2019-06-08T21:50:02.231Z,4.50
2019-06-08T21:52:34.678Z,3.60
2019-06-08T21:55:07.482Z,4.83
2019-06-08T21:57:39.348Z,3.02
2019-06-08T22:00:35.884Z,4.35
2019-06-08T22:02:47.974Z,3.62
2019-06-08T22:05:21.084Z,4.67
2019-06-08T22:07:54.056Z,5.20
2019-06-08T22:10:26.053Z,4.55
2019-06-08T22:13:00.939Z,3.80
2019-06-08T22:15:32.320Z,3.33
2019-06-08T22:18:04.542Z,3.85
2019-06-08T22:20:38.244Z,4.45
2019-06-08T22:23:10.377Z,3.47
2019-06-08T22:25:42.756Z,3.65
2019-06-08T22:28:14.827Z,6.35
2019-06-08T22:30:48.233Z,4.25
2019-06-08T22:33:20.184Z,3.65
2019-06-08T22:35:53.133Z,3.83
2019-06-08T22:38:25.959Z,3.10
2019-06-08T22:41:00.295Z,2.87
2019-06-08T22:43:32.551Z,2.70
2019-06-08T22:46:04.419Z,2.80
2019-06-08T22:48:38.365Z,2.40
2019-06-08T22:51:10.093Z,3.02
2019-06-08T22:53:42.055Z,3.12
2019-06-08T22:56:14.329Z,3.20
2019-06-08T22:58:47.928Z,3.40
2019-06-08T23:01:19.863Z,3.35
2019-06-08T23:03:51.561Z,3.02
2019-06-08T23:06:24.042Z,3.60
2019-06-08T23:08:59.801Z,3.52
2019-06-08T23:11:30.330Z,2.83
2019-06-08T23:14:04.396Z,2.70
2019-06-08T23:16:36.311Z,2.52
2019-06-08T23:19:08.586Z,2.72
2019-06-08T23:21:40.652Z,3.02
2019-06-08T23:24:12.520Z,2.72
2019-06-08T23:26:44.690Z,2.30
2019-06-08T23:29:17.880Z,2.72
2019-06-08T23:31:49.847Z,2.42
2019-06-08T23:34:23.400Z,2.90
2019-06-08T23:36:59.979Z,3.37
2019-06-08T23:39:29.232Z,3.13
2019-06-08T23:42:01.690Z,2.60
2019-06-08T23:44:33.771Z,2.65
2019-06-08T23:47:06.080Z,3.47
2019-06-08T23:49:38.316Z,3.47
2019-06-08T23:52:11.751Z,3.52
2019-06-08T23:54:43.685Z,3.52
2019-06-08T23:57:17.902Z,5.92
2019-06-08T23:59:49.357Z,5.22
